Time;durP1;ratioP1;P1;durP2;ratioP2;P2;SDS_P1;SDS_P2;PMS_P1;PMS_P2;Temp;Humidity;BMP_temperature;BMP_pressure;BME280_temperature;BME280_humidity;BME280_pressure;Samples;Min_cycle;Max_cycle;Signal;HPM_P1;HPM_P2
2023/07/08 00:00:49;;;;;;;;;;;17.30;99.90;;;;;;5054351;28;20053;-72
2023/07/08 00:03:16;;;;;;;6.15;3.22;;;17.30;99.90;;;;;;5053710;28;20018;-72
2023/07/08 00:05:42;;;;;;;8.43;3.70;;;17.40;99.90;;;;;;5054327;28;20442;-72
2023/07/08 00:08:19;;;;;;;5.85;3.10;;;17.40;99.90;;;;;;5053094;28;20029;-72
2023/07/08 00:10:45;;;;;;;9.18;3.65;;;17.40;99.90;;;;;;5053410;28;20177;-72
2023/07/08 00:13:11;;;;;;;5.32;3.17;;;17.50;99.90;;;;;;5053068;28;20025;-72
2023/07/08 00:15:38;;;;;;;5.22;2.92;;;17.50;99.90;;;;;;5053321;28;20532;-72
2023/07/08 00:18:16;;;;;;;4.80;3.33;;;17.50;99.90;;;;;;5052800;28;20120;-72
2023/07/08 00:20:49;;;;;;;7.78;3.95;;;17.60;99.90;;;;;;5053549;28;20036;-71
2023/07/08 00:23:15;;;;;;;6.45;3.38;;;17.60;99.90;;;;;;5053371;28;20028;-72
2023/07/08 00:25:42;;;;;;;7.25;3.40;;;17.60;99.90;;;;;;5053704;28;20113;-72
2023/07/08 00:28:19;;;;;;;5.72;3.35;;;17.70;99.90;;;;;;5052151;28;20033;-71
2023/07/08 00:30:46;;;;;;;7.15;3.45;;;17.70;99.90;;;;;;5053356;28;20419;-72
2023/07/08 00:33:12;;;;;;;5.57;3.05;;;17.70;99.90;;;;;;5052682;28;20100;-72
2023/07/08 00:35:40;;;;;;;4.35;2.90;;;17.70;99.90;;;;;;5052045;28;20159;-71
2023/07/08 00:38:26;;;;;;;6.00;3.50;;;17.80;99.90;;;;;;5052917;28;20040;-72
2023/07/08 00:41:02;;;;;;;6.63;3.40;;;17.80;99.90;;;;;;5053564;28;20029;-72
2023/07/08 00:43:37;;;;;;;5.13;3.45;;;17.90;99.90;;;;;;5053353;28;20423;-73
2023/07/08 00:46:31;;;;;;;9.68;3.72;;;17.90;99.90;;;;;;5052559;28;20108;-73
2023/07/08 00:49:08;;;;;;;;;;;17.90;99.90;;;;;;5053745;28;20374;-73
2023/07/08 00:51:38;;;;;;;6.22;3.58;;;18.00;99.90;;;;;;5053036;28;19908;-71
2023/07/08 00:54:15;;;;;;;7.10;3.60;;;18.00;99.90;;;;;;5052519;28;20104;-72
2023/07/08 00:56:49;;;;;;;5.57;3.30;;;18.10;99.90;;;;;;5052794;28;20029;-72
2023/07/08 00:59:27;;;;;;;5.55;3.45;;;18.10;99.90;;;;;;5052417;28;20056;-72
2023/07/08 01:01:54;;;;;;;7.75;3.78;;;18.20;99.90;;;;;;5052758;28;20025;-72
2023/07/08 01:04:22;;;;;;;6.45;3.78;;;18.20;99.90;;;;;;5052159;28;20017;-72
2023/07/08 01:06:56;;;;;;;6.03;3.58;;;18.20;99.90;;;;;;5052357;28;20036;-72
2023/07/08 01:09:27;;;;;;;6.43;3.30;;;18.30;99.90;;;;;;5052252;28;20104;-72
2023/07/08 01:11:57;;;;;;;7.85;3.65;;;18.30;99.90;;;;;;5052465;28;20372;-72
2023/07/08 01:14:26;;;;;;;6.93;3.55;;;18.30;99.90;;;;;;5052311;28;20029;-72
2023/07/08 01:16:52;;;;;;;7.15;3.85;;;18.40;99.90;;;;;;5052137;28;20082;-72
2023/07/08 01:19:32;;;;;;;6.78;3.58;;;18.40;99.90;;;;;;5050580;28;20169;-72
2023/07/08 01:22:01;;;;;;;8.80;3.85;;;18.50;99.90;;;;;;5052505;28;20371;-72
2023/07/08 01:24:29;;;;;;;7.07;3.85;;;18.50;99.90;;;;;;5052559;28;20034;-72
2023/07/08 01:26:56;;;;;;;6.82;4.10;;;18.50;99.90;;;;;;5052453;28;20048;-72
2023/07/08 01:29:22;;;;;;;11.93;4.22;;;18.60;99.90;;;;;;5051510;28;20140;-72
2023/07/08 01:31:48;;;;;;;8.25;4.35;;;18.60;99.90;;;;;;5052123;28;20025;-72
2023/07/08 01:34:18;;;;;;;8.32;4.47;;;18.60;99.90;;;;;;5052017;28;20051;-72
2023/07/08 01:36:54;;;;;;;9.10;4.60;;;18.60;99.90;;;;;;5052495;28;20021;-72
2023/07/08 01:39:22;;;;;;;7.95;4.80;;;18.70;99.90;;;;;;5051671;28;20032;-72
2023/07/08 01:41:47;;;;;;;7.03;4.43;;;18.70;99.90;;;;;;5052241;28;20021;-73
2023/07/08 01:44:33;;;;;;;11.05;4.95;;;18.70;99.90;;;;;;5051450;28;20463;-73
2023/07/08 01:47:04;;;;;;;6.70;4.25;;;18.80;99.90;;;;;;5051670;28;20526;-72
2023/07/08 01:49:31;;;;;;;7.38;4.40;;;18.80;99.90;;;;;;5051830;28;20072;-73
2023/07/08 01:51:58;;;;;;;7.65;4.80;;;18.90;99.90;;;;;;5052193;28;20036;-72
2023/07/08 01:54:24;;;;;;;12.38;4.75;;;19.00;99.90;;;;;;5051694;28;20025;-73
2023/07/08 01:56:58;;;;;;;12.75;4.90;;;19.00;99.90;;;;;;5051917;28;20447;-73
2023/07/08 01:59:24;;;;;;;7.55;4.70;;;19.00;99.90;;;;;;5051273;28;20419;-72
2023/07/08 02:01:54;;;;;;;7.97;4.97;;;19.00;99.90;;;;;;5051854;28;20103;-72
2023/07/08 02:04:24;;;;;;;9.15;4.53;;;19.10;99.90;;;;;;5051028;28;20476;-73
2023/07/08 02:06:59;;;;;;;7.82;4.32;;;19.10;99.90;;;;;;5050179;28;20048;-72
2023/07/08 02:09:25;;;;;;;8.60;4.72;;;19.10;99.90;;;;;;5049883;28;20409;-72
2023/07/08 02:11:52;;;;;;;13.27;4.90;;;19.10;99.90;;;;;;5050054;28;20375;-72
2023/07/08 02:14:18;;;;;;;7.72;4.70;;;19.10;99.90;;;;;;5051000;28;20021;-72
2023/07/08 02:16:44;;;;;;;9.23;4.40;;;19.10;99.90;;;;;;5051041;28;20092;-72
2023/07/08 02:19:11;;;;;;;7.82;5.20;;;19.10;99.90;;;;;;5051330;28;20040;-72
2023/07/08 02:21:37;;;;;;;8.75;5.28;;;19.10;99.90;;;;;;5051657;28;20115;-72
2023/07/08 02:24:03;;;;;;;9.15;4.70;;;19.10;99.90;;;;;;5051534;28;20116;-74
2023/07/08 02:26:31;;;;;;;10.05;4.88;;;19.10;99.90;;;;;;5051557;28;20086;-72
2023/07/08 02:28:58;;;;;;;9.15;5.07;;;19.10;99.90;;;;;;5051239;28;20057;-72
2023/07/08 02:31:27;;;;;;;12.02;5.35;;;19.20;99.90;;;;;;5050487;28;20121;-72
2023/07/08 02:33:53;;;;;;;12.23;5.80;;;19.20;99.90;;;;;;5051074;28;20021;-72
2023/07/08 02:36:20;;;;;;;8.50;4.75;;;19.20;99.90;;;;;;5049430;28;20032;-72
2023/07/08 02:38:45;;;;;;;11.65;5.53;;;19.20;99.90;;;;;;5050959;28;20056;-72
2023/07/08 02:41:11;;;;;;;11.32;5.65;;;19.20;99.90;;;;;;5050265;28;20110;-72
2023/07/08 02:43:38;;;;;;;10.43;5.68;;;19.30;99.90;;;;;;5051034;28;20025;-72
2023/07/08 02:46:04;;;;;;;13.35;5.65;;;19.30;99.90;;;;;;5050237;28;20374;-73
2023/07/08 02:48:29;;;;;;;11.98;5.55;;;19.30;99.90;;;;;;5050558;28;20040;-72
2023/07/08 02:51:03;;;;;;;10.20;5.30;;;19.30;99.90;;;;;;5051205;28;20106;-72
2023/07/08 02:53:29;;;;;;;8.80;5.25;;;19.30;99.90;;;;;;5050420;28;20078;-72
2023/07/08 02:55:55;;;;;;;13.38;5.70;;;19.30;99.90;;;;;;5049436;28;20055;-73
2023/07/08 02:58:21;;;;;;;13.73;5.72;;;19.30;99.90;;;;;;5048799;28;20142;-72
2023/07/08 03:00:52;;;;;;;8.60;5.65;;;19.20;99.90;;;;;;5050819;28;20456;-72
2023/07/08 03:03:18;;;;;;;11.50;6.07;;;19.20;99.90;;;;;;5032388;28;20041;-73
2023/07/08 03:05:43;;;;;;;7.88;5.57;;;19.20;99.90;;;;;;5050780;28;20394;-73
2023/07/08 03:08:09;;;;;;;12.90;5.97;;;19.20;99.90;;;;;;5049953;28;20446;-73
2023/07/08 03:10:35;;;;;;;12.50;5.78;;;19.20;99.90;;;;;;5051068;28;20040;-72
2023/07/08 03:13:00;;;;;;;11.93;5.78;;;19.20;99.90;;;;;;5050376;28;20109;-72
2023/07/08 03:15:26;;;;;;;11.10;5.85;;;19.20;99.90;;;;;;5050316;28;20028;-72
2023/07/08 03:17:57;;;;;;;14.98;5.53;;;19.10;99.90;;;;;;5050579;28;20351;-72
2023/07/08 03:20:23;;;;;;;16.45;6.13;;;19.10;99.90;;;;;;5050160;28;20025;-72
2023/07/08 03:22:48;;;;;;;12.82;5.90;;;19.10;99.90;;;;;;5050509;28;20036;-72
2023/07/08 03:25:14;;;;;;;10.40;5.88;;;19.10;99.90;;;;;;5050241;28;20459;-72
2023/07/08 03:27:40;;;;;;;13.10;5.60;;;19.00;99.90;;;;;;5050384;28;20055;-72
2023/07/08 03:30:07;;;;;;;11.45;5.53;;;19.00;99.90;;;;;;5050058;28;20049;-73
2023/07/08 03:32:33;;;;;;;9.00;5.57;;;19.00;99.90;;;;;;5048865;28;20025;-72
2023/07/08 03:35:01;;;;;;;7.57;5.18;;;19.00;99.90;;;;;;5050390;28;20098;-72
2023/07/08 03:37:27;;;;;;;12.32;5.35;;;18.90;99.90;;;;;;5049895;28;20056;-72
2023/07/08 03:39:52;;;;;;;9.35;5.65;;;18.90;99.90;;;;;;5048942;28;20056;-72
2023/07/08 03:42:18;;;;;;;10.25;5.25;;;18.80;99.90;;;;;;5050140;28;20025;-72
2023/07/08 03:44:44;;;;;;;10.63;5.65;;;18.80;99.90;;;;;;5050722;28;20029;-72
2023/07/08 03:47:09;;;;;;;10.88;5.63;;;18.80;99.90;;;;;;5049780;28;20109;-75
2023/07/08 03:49:35;;;;;;;12.15;5.75;;;18.80;99.90;;;;;;5050579;28;20382;-73
2023/07/08 03:52:01;;;;;;;11.05;5.30;;;18.70;99.90;;;;;;5050432;28;20498;-73
2023/07/08 03:54:26;;;;;;;8.57;4.95;;;18.70;99.90;;;;;;5050077;28;20048;-73
2023/07/08 03:56:52;;;;;;;13.20;5.28;;;18.70;99.90;;;;;;5050536;28;20029;-73
2023/07/08 03:59:18;;;;;;;9.18;4.90;;;18.70;99.90;;;;;;5049817;28;20055;-73
2023/07/08 04:01:44;;;;;;;9.18;4.72;;;18.70;99.90;;;;;;5050902;28;20110;-73
2023/07/08 04:04:14;;;;;;;14.98;5.70;;;18.70;99.90;;;;;;5049952;28;20123;-74
2023/07/08 04:06:40;;;;;;;14.30;5.55;;;18.70;99.90;;;;;;5050336;28;20036;-73
2023/07/08 04:09:06;;;;;;;10.55;5.55;;;18.70;99.90;;;;;;5050247;28;20037;-73
2023/07/08 04:11:32;;;;;;;8.20;5.20;;;18.60;99.90;;;;;;5049521;28;20036;-73
2023/07/08 04:13:58;;;;;;;12.05;5.28;;;18.70;99.90;;;;;;5050475;28;20484;-73
2023/07/08 04:16:29;;;;;;;13.38;5.47;;;18.70;99.90;;;;;;5050139;28;20029;-73
2023/07/08 04:18:56;;;;;;;11.73;5.25;;;18.60;99.90;;;;;;5049295;28;20028;-73
2023/07/08 04:21:27;;;;;;;11.07;5.50;;;18.60;99.90;;;;;;5049981;28;20025;-73
2023/07/08 04:23:53;;;;;;;7.97;5.00;;;18.60;99.90;;;;;;5050184;28;20065;-73
2023/07/08 04:26:21;;;;;;;12.07;5.60;;;18.60;99.90;;;;;;5049803;28;20471;-73
2023/07/08 04:28:47;;;;;;;12.05;5.53;;;18.70;99.90;;;;;;5049353;28;20474;-73
2023/07/08 04:31:13;;;;;;;8.45;5.05;;;18.60;99.90;;;;;;5049199;28;20029;-75
2023/07/08 04:33:38;;;;;;;12.77;5.50;;;18.60;99.90;;;;;;5049872;28;20086;-73
2023/07/08 04:36:09;;;;;;;10.85;5.85;;;18.60;99.90;;;;;;5049498;28;20025;-73
2023/07/08 04:38:36;;;;;;;10.98;5.32;;;18.60;99.90;;;;;;5049475;28;20047;-73
2023/07/08 04:41:02;;;;;;;15.20;5.68;;;18.60;99.90;;;;;;5051446;28;20466;-72
2023/07/08 04:43:29;;;;;;;11.90;4.95;;;18.60;99.90;;;;;;5052661;28;20048;-73
2023/07/08 04:45:56;;;;;;;12.63;6.00;;;18.60;99.90;;;;;;5053841;28;20025;-73
2023/07/08 04:48:24;;;;;;;12.70;5.80;;;18.60;99.90;;;;;;5051363;28;20454;-73
2023/07/08 04:50:52;;;;;;;11.63;5.78;;;18.50;99.90;;;;;;5053116;28;20056;-72
2023/07/08 04:53:18;;;;;;;13.55;5.53;;;18.50;99.90;;;;;;5052421;28;20108;-74
2023/07/08 04:55:53;;;;;;;10.40;5.75;;;18.50;99.90;;;;;;5052964;28;20470;-73
2023/07/08 04:58:19;;;;;;;15.55;6.10;;;18.50;99.90;;;;;;5052700;28;20029;-74
2023/07/08 05:00:45;;;;;;;17.10;6.28;;;18.50;99.90;;;;;;5053337;28;20365;-74
2023/07/08 05:03:11;;;;;;;14.93;6.22;;;18.40;99.90;;;;;;5053034;28;20025;-74
2023/07/08 05:05:36;;;;;;;12.43;6.60;;;18.50;99.90;;;;;;5052443;28;20029;-72
2023/07/08 05:08:03;;;;;;;17.05;6.65;;;18.40;99.90;;;;;;5052507;28;20033;-72
2023/07/08 05:10:28;;;;;;;14.27;6.60;;;18.40;99.90;;;;;;5051867;28;20343;-72
2023/07/08 05:12:54;;;;;;;14.73;6.32;;;18.40;99.90;;;;;;5052984;28;20115;-73
2023/07/08 05:15:20;;;;;;;11.63;6.28;;;18.40;99.90;;;;;;5051990;28;20021;-73
2023/07/08 05:17:46;;;;;;;18.27;6.80;;;18.40;99.90;;;;;;5051176;28;20098;-72
2023/07/08 05:20:14;;;;;;;14.35;6.72;;;18.40;99.90;;;;;;5052676;28;20044;-73
2023/07/08 05:22:41;;;;;;;13.50;6.40;;;18.40;99.90;;;;;;5051939;28;20130;-72
2023/07/08 05:25:07;;;;;;;15.98;6.65;;;18.40;99.90;;;;;;5052522;28;20029;-73
2023/07/08 05:27:35;;;;;;;14.68;6.10;;;18.40;99.90;;;;;;5051649;28;20078;-73
2023/07/08 05:30:03;;;;;;;15.18;7.13;;;18.40;99.90;;;;;;5052192;28;20056;-73
2023/07/08 05:32:28;;;;;;;17.38;6.72;;;18.40;99.90;;;;;;5052133;28;20017;-73
2023/07/08 05:34:54;;;;;;;15.70;7.20;;;18.40;99.90;;;;;;5052136;28;20025;-73
2023/07/08 05:37:24;;;;;;;17.92;6.80;;;18.40;99.90;;;;;;5050879;28;20102;-73
2023/07/08 05:39:53;;;;;;;20.88;6.57;;;18.40;99.90;;;;;;5052336;28;20025;-73
2023/07/08 05:42:22;;;;;;;19.70;6.55;;;18.40;99.90;;;;;;5051662;28;20025;-74
2023/07/08 05:44:48;;;;;;;19.38;6.68;;;18.50;99.90;;;;;;5051770;28;20100;-73
2023/07/08 05:47:15;;;;;;;15.45;6.10;;;18.50;99.90;;;;;;5052034;28;20082;-73
2023/07/08 05:49:41;;;;;;;15.15;6.68;;;18.50;99.90;;;;;;5051473;28;20098;-73
2023/07/08 05:52:10;;;;;;;11.45;5.85;;;18.60;99.90;;;;;;5052142;28;20060;-73
2023/07/08 05:54:40;;;;;;;16.70;6.18;;;18.60;99.90;;;;;;5049789;28;20598;-73
2023/07/08 05:57:08;;;;;;;16.80;5.97;;;18.70;99.90;;;;;;5052057;28;20084;-73
2023/07/08 05:59:35;;;;;;;16.70;6.20;;;18.70;99.90;;;;;;5051262;28;20025;-73
2023/07/08 06:02:01;;;;;;;16.23;5.97;;;18.80;99.90;;;;;;5051831;28;20108;-73
2023/07/08 06:04:28;;;;;;;15.95;5.13;;;18.80;99.90;;;;;;5050865;28;20433;-73
2023/07/08 06:06:53;;;;;;;19.42;5.03;;;18.80;99.90;;;;;;5051498;28;20532;-73
2023/07/08 06:09:19;;;;;;;15.02;5.20;;;18.80;99.90;;;;;;5050624;28;20025;-73
2023/07/08 06:11:45;;;;;;;11.80;4.22;;;18.80;99.90;;;;;;5051402;28;20025;-73
2023/07/08 06:14:10;;;;;;;10.95;4.03;;;18.80;99.90;;;;;;5049761;28;20103;-73
2023/07/08 06:16:36;;;;;;;6.63;3.60;;;18.80;99.90;;;;;;5050889;28;20029;-73
2023/07/08 06:19:02;;;;;;;8.30;3.35;;;18.80;99.90;;;;;;5051218;28;20060;-72
2023/07/08 06:21:28;;;;;;;10.27;4.30;;;18.80;99.90;;;;;;5050929;28;20409;-73
2023/07/08 06:23:53;;;;;;;7.55;3.13;;;18.80;99.90;;;;;;5051479;28;20025;-73
2023/07/08 06:26:19;;;;;;;10.80;3.40;;;18.90;99.90;;;;;;5049464;28;20086;-74
2023/07/08 06:28:45;;;;;;;7.68;3.30;;;18.90;99.90;;;;;;5051296;28;20411;-72
2023/07/08 06:31:10;;;;;;;9.07;3.47;;;19.00;99.90;;;;;;5051411;28;20364;-72
2023/07/08 06:33:36;;;;;;;10.13;2.88;;;19.00;99.90;;;;;;5050461;28;20029;-73
2023/07/08 06:36:02;;;;;;;12.70;3.25;;;19.10;99.90;;;;;;5050967;28;20036;-73
2023/07/08 06:38:28;;;;;;;11.05;3.45;;;19.10;99.90;;;;;;5050902;28;20087;-73
2023/07/08 06:40:54;;;;;;;14.75;3.88;;;19.10;99.90;;;;;;5051186;28;20139;-73
2023/07/08 06:43:19;;;;;;;8.25;3.03;;;19.10;99.90;;;;;;5050750;28;20036;-75
2023/07/08 06:45:45;;;;;;;11.20;2.72;;;19.10;99.90;;;;;;5051016;28;20108;-73
2023/07/08 06:48:11;;;;;;;11.73;3.38;;;19.00;99.90;;;;;;5051066;28;20466;-72
2023/07/08 06:50:38;;;;;;;12.73;3.63;;;19.00;99.90;;;;;;5050325;28;20031;-72
2023/07/08 06:53:04;;;;;;;14.00;3.15;;;19.10;99.90;;;;;;5050906;28;20412;-73
2023/07/08 06:55:30;;;;;;;12.52;3.13;;;19.10;99.90;;;;;;5050390;28;20100;-73
2023/07/08 06:57:55;;;;;;;14.70;2.90;;;19.10;99.90;;;;;;5050925;28;20037;-72
2023/07/08 07:00:22;;;;;;;14.55;2.75;;;19.10;99.90;;;;;;5050220;28;20027;-74
2023/07/08 07:02:47;;;;;;;10.77;2.75;;;19.10;99.90;;;;;;5050274;28;20459;-72
2023/07/08 07:05:13;;;;;;;12.52;2.95;;;19.10;99.90;;;;;;5050587;28;20031;-73
2023/07/08 07:07:39;;;;;;;10.65;2.53;;;19.10;99.90;;;;;;5049955;28;20098;-73
2023/07/08 07:10:07;;;;;;;12.55;2.95;;;19.10;99.90;;;;;;5050698;28;20052;-72
2023/07/08 07:12:34;;;;;;;10.63;2.67;;;19.20;99.90;;;;;;5050088;28;20057;-73
2023/07/08 07:15:00;;;;;;;13.02;2.60;;;19.40;99.90;;;;;;5050872;28;20390;-73
2023/07/08 07:17:26;;;;;;;13.05;3.33;;;19.60;99.90;;;;;;5050234;28;20025;-73
2023/07/08 07:19:53;;;;;;;12.00;2.83;;;19.90;99.90;;;;;;5050722;28;20025;-72
2023/07/08 07:22:19;;;;;;;16.00;2.65;;;20.10;99.90;;;;;;5050611;28;20079;-72
2023/07/08 07:24:45;;;;;;;10.48;2.90;;;20.20;99.90;;;;;;5048650;28;20369;-72
2023/07/08 07:27:11;;;;;;;9.43;2.75;;;20.30;99.90;;;;;;5050467;28;20033;-72
2023/07/08 07:29:48;;;;;;;15.25;3.08;;;20.30;99.90;;;;;;5049423;28;20136;-73
2023/07/08 07:32:15;;;;;;;12.40;2.60;;;20.20;99.90;;;;;;5050049;28;20463;-73
2023/07/08 07:34:41;;;;;;;10.50;2.75;;;20.10;99.90;;;;;;5049914;28;20025;-73
2023/07/08 07:37:11;;;;;;;16.65;2.80;;;20.00;99.90;;;;;;5050339;28;20033;-73
2023/07/08 07:39:37;;;;;;;10.90;2.50;;;20.00;99.90;;;;;;5049950;28;20059;-73
2023/07/08 07:42:03;;;;;;;12.50;2.88;;;19.90;99.90;;;;;;5050399;28;20052;-73
2023/07/08 07:44:29;;;;;;;14.93;2.95;;;19.90;99.90;;;;;;5049857;28;20029;-72
2023/07/08 07:46:54;;;;;;;12.88;2.67;;;19.80;99.90;;;;;;5050481;28;20032;-72
2023/07/08 07:49:21;;;;;;;11.43;2.00;;;19.80;99.90;;;;;;5050440;28;20382;-72
2023/07/08 07:51:47;;;;;;;9.20;1.90;;;19.90;99.90;;;;;;5049849;28;20151;-72
2023/07/08 07:54:12;;;;;;;10.07;2.65;;;19.90;99.90;;;;;;5050715;28;20372;-72
2023/07/08 07:56:38;;;;;;;10.93;2.42;;;19.90;99.90;;;;;;5049795;28;20025;-72
2023/07/08 07:59:04;;;;;;;12.40;2.25;;;20.00;99.90;;;;;;5050331;28;20021;-71
2023/07/08 08:01:30;;;;;;;8.38;1.88;;;20.10;99.90;;;;;;5049575;28;20079;-72
2023/07/08 08:03:55;;;;;;;6.10;2.03;;;20.20;99.90;;;;;;5049730;28;20477;-72
2023/07/08 08:06:22;;;;;;;11.65;2.78;;;20.20;99.90;;;;;;5050066;28;20032;-73
2023/07/08 08:08:49;;;;;;;8.18;2.28;;;20.20;99.90;;;;;;5049681;28;20116;-72
2023/07/08 08:11:15;;;;;;;12.55;1.85;;;20.10;99.90;;;;;;5049827;28;20029;-72
2023/07/08 08:13:41;;;;;;;8.13;1.67;;;20.20;99.90;;;;;;5049457;28;20048;-72
2023/07/08 08:16:07;;;;;;;10.10;2.15;;;20.30;99.90;;;;;;5051515;28;20115;-72
2023/07/08 08:18:33;;;;;;;12.73;2.38;;;20.40;99.90;;;;;;5052591;28;20516;-73
2023/07/08 08:20:59;;;;;;;13.07;2.25;;;20.50;99.90;;;;;;5053686;28;20025;-73
2023/07/08 08:23:25;;;;;;;8.90;2.03;;;20.40;99.90;;;;;;5053028;28;20107;-74
2023/07/08 08:25:51;;;;;;;7.97;1.85;;;20.30;99.90;;;;;;5053001;28;20055;-73
2023/07/08 08:28:17;;;;;;;12.38;2.05;;;20.20;99.90;;;;;;5052090;28;20044;-72
2023/07/08 08:30:48;;;;;;;9.23;2.05;;;20.30;99.90;;;;;;5053028;28;20049;-72
2023/07/08 08:33:14;;;;;;;10.45;1.88;;;20.30;99.90;;;;;;5054119;28;20024;-72
2023/07/08 08:35:39;;;;;;;10.00;2.13;;;20.40;99.90;;;;;;5053313;28;20027;-72
2023/07/08 08:38:05;;;;;;;7.72;1.95;;;20.50;99.90;;;;;;5053657;28;20095;-72
2023/07/08 08:40:31;;;;;;;10.82;2.10;;;20.50;99.90;;;;;;5051815;28;20094;-73
2023/07/08 08:43:20;;;;;;;10.20;2.25;;;20.60;99.90;;;;;;5052968;28;20021;-72
2023/07/08 08:45:59;;;;;;;8.85;2.28;;;20.60;99.90;;;;;;5052873;28;20112;-72
2023/07/08 08:48:26;;;;;;;10.65;2.42;;;20.60;99.90;;;;;;5052877;28;20040;-72
2023/07/08 08:51:15;;;;;;;13.75;2.30;;;20.60;99.90;;;;;;5052041;28;20074;-72
2023/07/08 08:53:41;;;;;;;7.65;2.17;;;20.50;99.90;;;;;;5052591;28;20029;-72
2023/07/08 08:56:20;;;;;;;6.90;1.90;;;20.40;99.90;;;;;;5052692;28;20033;-74
2023/07/08 08:58:57;;;;;;;7.70;1.48;;;20.30;99.90;;;;;;5052499;28;20029;-72
2023/07/08 09:01:24;;;;;;;8.82;2.03;;;20.30;99.90;;;;;;5052659;28;20103;-72
2023/07/08 09:03:56;;;;;;;7.60;2.00;;;20.20;99.90;;;;;;5052122;28;20140;-72
2023/07/08 09:06:25;;;;;;;6.22;1.70;;;20.30;99.90;;;;;;5052503;28;20025;-72
2023/07/08 09:08:52;;;;;;;8.43;1.75;;;20.30;99.90;;;;;;5052146;28;20052;-72
2023/07/08 09:11:34;;;;;;;8.88;1.63;;;20.40;99.90;;;;;;5051179;28;20079;-72
2023/07/08 09:14:00;;;;;;;8.02;1.92;;;20.70;99.90;;;;;;5052945;28;20025;-72
2023/07/08 09:16:37;;;;;;;9.30;1.67;;;20.80;99.90;;;;;;5053102;28;20032;-73
2023/07/08 09:19:22;;;;;;;5.75;1.40;;;20.90;99.90;;;;;;5053004;28;20029;-72
2023/07/08 09:21:57;;;;;;;13.40;1.70;;;20.90;99.90;;;;;;5052341;28;20165;-72
2023/07/08 09:24:42;;;;;;;5.80;1.80;;;20.90;99.90;;;;;;5053155;28;20036;-72
2023/07/08 09:27:08;;;;;;;8.57;1.58;;;20.70;99.90;;;;;;5052340;28;20053;-72
2023/07/08 09:29:34;;;;;;;6.95;1.58;;;20.60;99.90;;;;;;5051753;28;20084;-73
2023/07/08 09:32:11;;;;;;;6.38;1.75;;;20.50;99.90;;;;;;5051031;28;20128;-72
2023/07/08 09:34:44;;;;;;;6.03;1.45;;;20.60;99.90;;;;;;5051916;28;20446;-72
2023/07/08 09:37:24;;;;;;;8.40;2.03;;;20.70;99.90;;;;;;5052303;28;20459;-72
2023/07/08 09:39:51;;;;;;;6.85;1.50;;;20.70;99.90;;;;;;5051358;28;20108;-72
2023/07/08 09:42:17;;;;;;;7.75;1.42;;;20.90;99.90;;;;;;5051441;28;20068;-72
2023/07/08 09:44:45;;;;;;;9.23;2.10;;;21.10;99.90;;;;;;5051507;28;20025;-72
2023/07/08 09:47:32;;;;;;;4.40;1.50;;;21.20;99.90;;;;;;5052167;28;20062;-72
2023/07/08 09:49:59;;;;;;;8.65;1.50;;;21.20;99.90;;;;;;5051739;28;20089;-72
2023/07/08 09:52:25;;;;;;;5.57;1.67;;;21.30;99.90;;;;;;5051879;28;20033;-72
2023/07/08 09:54:51;;;;;;;6.38;1.77;;;21.40;99.90;;;;;;5049769;28;20191;-72
2023/07/08 09:57:30;;;;;;;8.70;1.60;;;21.40;99.90;;;;;;5051085;28;20403;-72
2023/07/08 10:00:07;;;;;;;10.77;1.83;;;21.40;99.90;;;;;;5049866;28;20498;-72
2023/07/08 10:02:35;;;;;;;6.10;1.58;;;21.40;99.90;;;;;;5049909;28;20025;-74
2023/07/08 10:05:27;;;;;;;8.63;1.60;;;21.50;99.90;;;;;;5051678;28;20035;-72
2023/07/08 10:07:55;;;;;;;5.47;1.75;;;21.70;99.90;;;;;;5050653;28;20021;-72
2023/07/08 10:10:34;;;;;;;8.43;2.10;;;21.80;99.90;;;;;;5051366;28;20021;-72
2023/07/08 10:13:04;;;;;;;8.07;1.77;;;21.90;99.90;;;;;;5051269;28;20501;-72
2023/07/08 10:15:44;;;;;;;7.43;1.80;;;22.00;99.90;;;;;;5050999;28;20025;-72
2023/07/08 10:18:21;;;;;;;5.85;1.63;;;22.00;99.90;;;;;;5051374;28;20037;-72
2023/07/08 10:21:03;;;;;;;9.45;2.05;;;22.10;99.90;;;;;;5050366;28;20074;-72
2023/07/08 10:24:01;;;;;;;7.13;1.55;;;22.10;99.90;;;;;;5050970;28;20028;-72
2023/07/08 10:26:29;;;;;;;6.18;1.50;;;22.10;99.90;;;;;;5027673;28;20070;-72
2023/07/08 10:29:18;;;;;;;9.02;1.92;;;22.10;99.90;;;;;;5050069;28;20133;-72
2023/07/08 10:31:52;;;;;;;6.55;1.58;;;22.10;99.90;;;;;;5050397;28;20032;-73
2023/07/08 10:34:42;;;;;;;11.52;1.90;;;22.10;99.90;;;;;;5050665;28;20032;-72
2023/07/08 10:37:23;;;;;;;6.32;1.50;;;22.10;99.90;;;;;;5051185;28;20025;-72
2023/07/08 10:40:02;;;;;;;5.97;2.05;;;22.30;99.90;;;;;;5048062;28;20055;-73
2023/07/08 10:42:34;;;;;;;5.10;1.70;;;22.30;99.90;;;;;;5050511;28;20063;-73
2023/07/08 10:45:13;;;;;;;7.63;1.90;;;22.20;99.90;;;;;;5048426;28;20056;-73
2023/07/08 10:48:00;;;;;;;5.43;1.80;;;22.10;99.90;;;;;;5049309;28;20087;-73
2023/07/08 10:50:30;;;;;;;9.15;3.35;;;21.90;99.90;;;;;;5050533;28;20025;-73
2023/07/08 10:53:03;;;;;;;7.47;1.63;;;21.70;99.90;;;;;;5049750;28;20553;-73
2023/07/08 10:55:53;;;;;;;7.63;1.63;;;21.60;99.90;;;;;;5050259;28;20036;-72
2023/07/08 10:58:18;;;;;;;9.38;2.03;;;21.70;99.90;;;;;;5048494;28;20059;-73
2023/07/08 11:00:50;;;;;;;9.50;1.80;;;21.70;99.90;;;;;;5049531;28;20396;-73
2023/07/08 11:03:34;;;;;;;9.27;1.67;;;21.70;99.90;;;;;;5050292;28;20036;-72
2023/07/08 11:06:17;;;;;;;8.95;1.95;;;21.60;99.90;;;;;;5047647;28;20446;-72
2023/07/08 11:09:04;;;;;;;9.00;1.60;;;21.30;99.90;;;;;;5048010;28;20145;-72
2023/07/08 11:11:48;;;;;;;7.43;1.88;;;21.30;99.90;;;;;;5049823;28;20135;-72
2023/07/08 11:14:37;;;;;;;5.35;1.77;;;21.50;99.90;;;;;;5049356;28;20041;-73
2023/07/08 11:17:39;;;;;;;9.48;1.70;;;21.50;99.90;;;;;;5049974;28;20033;-72
2023/07/08 11:20:14;;;;;;;5.65;1.50;;;21.50;99.90;;;;;;5042606;28;20037;-72
2023/07/08 11:22:49;;;;;;;13.35;2.30;;;21.40;99.90;;;;;;5049499;28;20207;-73
2023/07/08 11:25:21;;;;;;;6.18;1.90;;;21.30;99.90;;;;;;5049686;28;20489;-72
2023/07/08 11:27:51;;;;;;;8.70;1.92;;;21.40;99.90;;;;;;5047570;28;20368;-73
2023/07/08 11:30:21;;;;;;;5.25;1.85;;;21.40;99.90;;;;;;5049617;28;20063;-72
2023/07/08 11:32:55;;;;;;;6.40;1.83;;;21.50;99.90;;;;;;5049014;28;20427;-72
2023/07/08 11:35:50;;;;;;;8.02;1.98;;;21.50;99.90;;;;;;5049719;28;20051;-72
2023/07/08 11:38:19;;;;;;;6.70;1.60;;;21.50;99.90;;;;;;5050085;28;20036;-72
2023/07/08 11:41:11;;;;;;;4.47;1.67;;;21.50;99.90;;;;;;5049025;28;20585;-73
2023/07/08 11:44:04;;;;;;;6.55;1.77;;;21.50;99.90;;;;;;5049018;28;20106;-73
2023/07/08 11:46:31;;;;;;;5.85;1.75;;;21.70;99.90;;;;;;5047779;28;20045;-72
2023/07/08 11:49:13;;;;;;;10.00;2.00;;;22.00;99.90;;;;;;5049388;28;20037;-72
2023/07/08 11:51:44;;;;;;;8.60;2.13;;;22.30;99.90;;;;;;5053395;28;20025;-74
2023/07/08 11:54:31;;;;;;;4.15;1.67;;;22.40;99.90;;;;;;5053465;28;20053;-72
2023/07/08 11:56:56;;;;;;;6.32;1.70;;;22.50;99.90;;;;;;5053231;28;20121;-72
2023/07/08 11:59:29;;;;;;;8.15;2.42;;;22.60;99.90;;;;;;5053171;28;20501;-72
2023/07/08 12:02:05;;;;;;;8.43;2.08;;;22.60;99.90;;;;;;5053308;28;20063;-73
2023/07/08 12:04:36;;;;;;;6.05;1.52;;;22.70;99.90;;;;;;5053417;28;20047;-72
2023/07/08 12:07:32;;;;;;;6.53;2.20;;;22.80;99.90;;;;;;5052987;28;20094;-73
2023/07/08 12:09:59;;;;;;;8.63;1.90;;;22.80;99.90;;;;;;5052663;28;20025;-73
2023/07/08 12:12:31;;;;;;;8.65;1.85;;;22.60;99.90;;;;;;5053103;28;20029;-73
2023/07/08 12:15:22;;;;;;;7.95;1.65;;;22.40;99.90;;;;;;5052941;28;20032;-71
2023/07/08 12:17:49;;;;;;;10.43;2.17;;;22.20;99.90;;;;;;5052301;28;20040;-73
2023/07/08 12:20:29;;;;;;;6.82;1.60;;;22.10;99.90;;;;;;5052989;28;20059;-73
2023/07/08 12:22:55;;;;;;;8.40;1.58;;;22.20;99.90;;;;;;5052896;28;20041;-73
2023/07/08 12:25:25;;;;;;;6.82;1.85;;;22.30;99.90;;;;;;5053154;28;20021;-73
2023/07/08 12:27:51;;;;;;;7.15;1.85;;;22.50;99.90;;;;;;5052230;28;20029;-73
2023/07/08 12:30:17;;;;;;;9.90;1.80;;;22.50;99.90;;;;;;5052476;28;20037;-73
2023/07/08 12:32:46;;;;;;;5.57;1.50;;;22.50;99.90;;;;;;5052532;28;20051;-74
2023/07/08 12:35:35;;;;;;;5.18;1.75;;;22.40;99.90;;;;;;5052982;28;20029;-72
2023/07/08 12:38:18;;;;;;;6.32;1.98;;;22.30;99.90;;;;;;5047009;28;20099;-73
2023/07/08 12:40:43;;;;;;;7.78;1.50;;;22.20;99.90;;;;;;5052455;28;20029;-74
2023/07/08 12:43:10;;;;;;;4.55;1.73;;;22.10;99.90;;;;;;5051254;28;20048;-73
2023/07/08 12:45:37;;;;;;;11.98;2.45;;;22.10;99.90;;;;;;5052929;28;20079;-72
2023/07/08 12:48:03;;;;;;;6.47;1.50;;;22.30;99.90;;;;;;5051832;28;20040;-73
2023/07/08 12:50:29;;;;;;;8.35;1.90;;;22.40;99.90;;;;;;5052644;28;20107;-72
2023/07/08 12:52:56;;;;;;;6.03;1.70;;;22.40;99.90;;;;;;5051690;28;20035;-72
2023/07/08 12:55:23;;;;;;;6.72;2.00;;;22.40;99.90;;;;;;5052415;28;20087;-72
2023/07/08 12:57:52;;;;;;;7.05;1.90;;;22.40;99.90;;;;;;5051971;28;20104;-72